Terminal Aerodrome Forecast
Issued by NWS Flagstaff, AZ

Home | Current Version | Previous Version | Text Only | Print | Product List | Glossary On
Versions: 1 2 3 4 5 6 7 8 9 10 11 12 13 14 15 16 17 18 19 20
272
FTUS45 KFGZ 281124
TAFFLG
TAF
KFLG 281124Z 2812/0112 23010KT 3/4SM -SN BR VV007
      TEMPO 2816/2817 3SM -SHSN BR OVC010
     FM281700 24010KT P6SM FEW010 BKN025
      TEMPO 2817/2820 4SM -SHSN BR BKN010
     FM282300 25007KT P6SM FEW025=

USA.gov is the U.S. government's official web portal to all federal, state and local government web resources and services.